Toledo, Indiana
Current Conditions -  °F | °C
As of 4:35 PM on Saturday 22 Nov 2014 (Local Time) from KHHG Reporting Station
Overcast Overcast  
Wind Chill: 50°   Ceiling: 4700
Heat Index: 50°   Visibility: 10mi
Dew Point: 43°   Wind: 8mph
Humidity: 77%   Direction: 210°SSW
Pressure: 29.99"   Gusts: NA
Location:  40.9238°N, 85.5001°W
Report Text: KHHG 222135Z AUTO 21007KT 10SM OVC047 10/06 A2999 RMK AO2 T01020063
Loading
Personal Weather Stations






























Interactive Weather Map New forecast layout! Learn more

10-Day Weather Forecast

Advertisements
Track Severe Weather on mobile